createdAt,value
2023-01-11T00:02:59.778Z,21.80
2023-01-11T00:06:30.181Z,18.70
2023-01-11T00:09:59.709Z,22.80
2023-01-11T00:13:29.900Z,20.90
2023-01-11T00:17:00.081Z,18.80
2023-01-11T00:20:30.932Z,23.80
2023-01-11T00:24:00.723Z,23.70
2023-01-11T00:27:31.998Z,22.70
2023-01-11T00:31:01.865Z,20.00
2023-01-11T00:34:31.530Z,22.30
2023-01-11T00:38:02.055Z,25.10
2023-01-11T00:41:32.024Z,27.00
2023-01-11T00:45:01.955Z,18.30
2023-01-11T00:48:31.698Z,23.60
2023-01-11T00:52:49.753Z,23.30
2023-01-11T00:59:38.813Z,22.30
2023-01-11T01:02:48.043Z,19.80
2023-01-11T01:06:18.734Z,21.20
2023-01-11T01:09:48.974Z,20.30
2023-01-11T01:14:04.922Z,17.10
2023-01-11T01:18:33.481Z,20.60
2023-01-11T01:23:02.642Z,13.60
2023-01-11T01:27:31.809Z,18.40
2023-01-11T01:34:20.649Z,18.90
2023-01-11T01:37:36.628Z,16.30
2023-01-11T01:44:20.644Z,16.80
2023-01-11T01:47:32.925Z,11.90
2023-01-11T01:51:15.647Z,17.20
2023-01-11T01:55:09.647Z,14.10
2023-01-11T01:58:46.775Z,11.90
2023-01-11T02:03:05.107Z,14.50
2023-01-11T02:07:34.465Z,12.50
2023-01-11T02:11:15.748Z,13.70
2023-01-11T02:14:45.815Z,11.10
2023-01-11T02:18:17.193Z,13.00
2023-01-11T02:22:46.592Z,14.20
2023-01-11T02:29:58.126Z,12.00
2023-01-11T02:33:25.008Z,9.50
2023-01-11T02:37:01.059Z,11.80
2023-01-11T02:40:37.028Z,11.40
2023-01-11T02:45:24.494Z,9.20
2023-01-11T02:49:51.781Z,9.30
2023-01-11T02:54:35.576Z,6.50
2023-01-11T02:59:05.031Z,9.20
2023-01-11T03:05:55.656Z,9.40
2023-01-11T03:09:04.836Z,8.80
2023-01-11T03:12:41.994Z,10.80
2023-01-11T03:16:13.146Z,9.00
2023-01-11T03:19:52.840Z,10.90
2023-01-11T03:24:00.420Z,9.10
2023-01-11T03:27:36.706Z,11.70
2023-01-11T03:31:09.912Z,13.40
2023-01-11T03:34:40.676Z,14.30
2023-01-11T03:38:10.680Z,13.30
2023-01-11T03:41:40.928Z,18.10
2023-01-11T03:45:10.635Z,11.80
2023-01-11T03:48:43.756Z,15.60
2023-01-11T03:52:16.771Z,15.40
2023-01-11T03:55:47.748Z,17.40
2023-01-11T03:59:20.583Z,17.50
2023-01-11T04:02:53.834Z,17.60
2023-01-11T04:06:23.600Z,12.70
2023-01-11T04:09:53.544Z,15.80
2023-01-11T04:13:23.901Z,18.70
2023-01-11T04:17:40.640Z,13.70
2023-01-11T04:24:58.565Z,13.30
2023-01-11T04:27:56.277Z,12.30
2023-01-11T04:31:26.572Z,18.10
2023-01-11T04:34:56.849Z,15.40
2023-01-11T04:38:27.386Z,14.90
2023-01-11T04:41:57.602Z,13.20
2023-01-11T04:45:27.959Z,11.40
2023-01-11T04:49:02.880Z,12.90
2023-01-11T04:52:32.637Z,9.80
2023-01-11T04:56:02.581Z,16.70
2023-01-11T04:59:34.398Z,14.90
2023-01-11T05:03:04.823Z,12.10
2023-01-11T05:06:34.750Z,11.40
2023-01-11T05:10:16.871Z,13.30
2023-01-11T05:13:46.588Z,11.00
2023-01-11T05:23:41.871Z,12.30
2023-01-11T05:26:50.692Z,10.60
2023-01-11T05:30:20.581Z,9.30
2023-01-11T05:40:12.671Z,8.70
2023-01-11T05:43:21.521Z,10.50
2023-01-11T05:46:51.565Z,11.60
2023-01-11T05:50:22.463Z,9.10
2023-01-11T05:53:52.570Z,12.00
2023-01-11T05:57:22.583Z,9.60
2023-01-11T06:00:32.148Z,9.20
2023-01-11T06:03:02.586Z,11.90
2023-01-11T06:05:35.320Z,9.50
2023-01-11T06:08:04.473Z,9.50
2023-01-11T06:10:34.291Z,9.60
2023-01-11T06:13:21.800Z,12.20
2023-01-11T06:15:50.530Z,9.20
2023-01-11T06:18:19.362Z,13.00
2023-01-11T06:20:52.793Z,8.60
2023-01-11T06:23:23.790Z,13.70
2023-01-11T06:25:52.636Z,11.20
2023-01-11T06:28:21.754Z,9.70
2023-01-11T06:30:57.698Z,7.70
2023-01-11T06:33:28.934Z,11.60
2023-01-11T06:36:02.752Z,10.10
2023-01-11T06:38:31.422Z,12.20
2023-01-11T06:41:03.038Z,9.60
2023-01-11T06:43:33.261Z,14.20
2023-01-11T06:46:02.468Z,11.00
2023-01-11T06:48:31.630Z,9.10
2023-01-11T06:51:00.450Z,11.50
2023-01-11T06:53:29.532Z,13.20
2023-01-11T06:55:59.473Z,10.90
2023-01-11T06:58:28.409Z,11.90
2023-01-11T07:00:59.229Z,8.60
2023-01-11T07:03:28.407Z,7.10
2023-01-11T07:05:58.498Z,8.90
2023-01-11T07:08:28.144Z,9.60
2023-01-11T07:10:56.848Z,13.10
2023-01-11T07:13:25.474Z,8.20
2023-01-11T07:15:58.305Z,8.10
2023-01-11T07:18:27.232Z,10.90
2023-01-11T07:20:55.953Z,8.90
2023-01-11T07:23:24.770Z,7.80
2023-01-11T07:25:53.449Z,9.10
2023-01-11T07:28:22.152Z,7.60
2023-01-11T07:30:58.702Z,5.80
2023-01-11T07:33:28.535Z,7.00
2023-01-11T07:35:58.637Z,9.30
2023-01-11T07:38:31.227Z,7.80
2023-01-11T07:41:00.307Z,7.00
2023-01-11T07:43:28.884Z,10.50
2023-01-11T07:45:58.008Z,9.20
2023-01-11T07:48:27.359Z,9.40
2023-01-11T07:50:56.583Z,10.30
2023-01-11T07:53:28.329Z,5.40
2023-01-11T07:55:57.160Z,8.10
2023-01-11T07:58:26.203Z,9.10
2023-01-11T08:00:55.043Z,7.20
2023-01-11T08:03:23.902Z,9.50
2023-01-11T08:05:54.179Z,10.10
2023-01-11T08:08:23.382Z,7.30
2023-01-11T08:11:12.181Z,7.20
2023-01-11T08:14:00.676Z,6.70
2023-01-11T08:16:29.384Z,7.00
2023-01-11T08:18:58.285Z,5.10
2023-01-11T08:21:26.989Z,6.10
2023-01-11T08:23:58.292Z,5.70
2023-01-11T08:26:28.464Z,6.40
2023-01-11T08:28:57.152Z,7.40
2023-01-11T08:31:26.556Z,5.60
2023-01-11T08:33:55.240Z,6.60
2023-01-11T08:36:24.906Z,8.30
2023-01-11T08:38:58.103Z,7.10
2023-01-11T08:41:26.903Z,7.20
2023-01-11T08:43:55.602Z,7.50
2023-01-11T08:46:24.344Z,8.30
2023-01-11T08:48:56.068Z,6.90
2023-01-11T08:51:24.660Z,9.50
2023-01-11T08:53:53.797Z,8.70
2023-01-11T08:56:22.505Z,7.80
2023-01-11T08:58:51.252Z,9.40
2023-01-11T09:01:19.960Z,9.10
2023-01-11T09:03:48.805Z,6.10
2023-01-11T09:06:19.299Z,13.80
2023-01-11T09:08:48.334Z,8.20
2023-01-11T09:11:35.895Z,7.40
2023-01-11T09:14:04.948Z,8.70
2023-01-11T09:16:33.916Z,7.40
2023-01-11T09:19:02.565Z,6.10
2023-01-11T09:21:31.862Z,6.50
2023-01-11T09:24:00.747Z,10.50
2023-01-11T09:26:30.017Z,7.50
2023-01-11T09:28:58.916Z,7.50
2023-01-11T09:31:27.838Z,10.00
2023-01-11T09:33:56.607Z,7.80
2023-01-11T09:36:27.248Z,7.30
2023-01-11T09:38:58.202Z,6.00
2023-01-11T09:41:56.714Z,7.30
2023-01-11T09:44:27.748Z,7.60
2023-01-11T09:47:23.781Z,7.90
2023-01-11T09:49:59.197Z,7.90
2023-01-11T09:52:53.783Z,7.80
2023-01-11T09:55:43.286Z,7.10
2023-01-11T09:58:52.054Z,5.40
2023-01-11T10:01:50.282Z,6.10
2023-01-11T10:05:00.783Z,7.70
2023-01-11T10:18:28.985Z,5.40
2023-01-11T10:19:24.604Z,8.00
2023-01-11T10:22:00.848Z,8.30
2023-01-11T10:24:42.399Z,6.70
2023-01-11T10:27:37.592Z,5.40
2023-01-11T10:30:57.862Z,6.20
2023-01-11T10:34:03.757Z,8.50
2023-01-11T10:37:27.799Z,6.30
2023-01-11T10:40:28.873Z,6.20
2023-01-11T10:43:05.098Z,8.00
2023-01-11T10:45:50.325Z,9.20
2023-01-11T10:48:39.809Z,8.10
2023-01-11T10:51:40.498Z,7.30
2023-01-11T10:54:14.676Z,8.60
2023-01-11T10:57:32.691Z,7.30
2023-01-11T11:00:34.418Z,10.40
2023-01-11T11:03:21.361Z,6.30
2023-01-11T11:06:08.671Z,10.60
2023-01-11T11:08:59.143Z,7.80
2023-01-11T11:11:47.403Z,5.10
2023-01-11T11:14:48.990Z,8.10
2023-01-11T11:17:34.670Z,6.70
2023-01-11T11:20:29.912Z,5.70
2023-01-11T11:22:58.603Z,6.00
2023-01-11T11:25:30.853Z,4.50
2023-01-11T11:28:28.769Z,4.90
2023-01-11T11:31:07.872Z,5.00
2023-01-11T11:33:41.570Z,5.40
2023-01-11T11:36:13.685Z,5.50
2023-01-11T11:39:03.732Z,5.60
2023-01-11T11:41:51.396Z,5.10
2023-01-11T11:44:27.889Z,6.90
2023-01-11T11:47:02.986Z,6.50
2023-01-11T11:49:37.349Z,6.90
2023-01-11T11:52:11.983Z,6.00
2023-01-11T11:54:53.726Z,6.30
2023-01-11T11:57:31.352Z,7.10
2023-01-11T12:00:22.626Z,5.80
2023-01-11T12:03:12.898Z,6.00
2023-01-11T12:06:07.861Z,7.70
2023-01-11T12:08:37.617Z,6.80
2023-01-11T12:11:14.129Z,6.60
2023-01-11T12:14:04.733Z,5.10
2023-01-11T12:16:42.381Z,4.40
2023-01-11T12:19:45.530Z,6.10
2023-01-11T12:22:29.400Z,5.00
2023-01-11T12:25:24.648Z,7.10
2023-01-11T12:28:13.552Z,5.80
2023-01-11T12:31:12.538Z,5.10
2023-01-11T12:34:08.822Z,4.50
2023-01-11T12:37:11.499Z,4.90
2023-01-11T12:39:46.224Z,4.10
2023-01-11T12:42:46.377Z,4.50
2023-01-11T12:45:57.622Z,5.80
2023-01-11T12:49:00.275Z,4.50
2023-01-11T12:52:26.527Z,4.80
2023-01-11T12:55:32.759Z,6.20
2023-01-11T12:58:14.271Z,5.50
2023-01-11T13:01:14.320Z,4.60
2023-01-11T13:04:15.719Z,5.40
2023-01-11T13:07:05.079Z,6.80
2023-01-11T13:10:08.591Z,5.80
2023-01-11T13:12:54.769Z,4.70
2023-01-11T13:16:14.745Z,4.90
2023-01-11T13:19:15.346Z,4.30
2023-01-11T13:21:53.543Z,4.60
2023-01-11T13:24:29.987Z,10.40
2023-01-11T13:27:04.888Z,4.30
2023-01-11T13:29:40.362Z,7.10
2023-01-11T13:32:20.431Z,4.80
2023-01-11T13:34:53.654Z,7.50
2023-01-11T13:37:49.945Z,4.60
2023-01-11T13:40:39.384Z,5.30
2023-01-11T13:43:20.242Z,4.50
2023-01-11T13:45:55.629Z,5.70
2023-01-11T13:48:34.664Z,5.50
2023-01-11T13:51:31.725Z,4.60
2023-01-11T13:54:14.764Z,5.90
2023-01-11T13:56:57.943Z,3.90
2023-01-11T13:59:46.417Z,3.90
2023-01-11T14:02:28.017Z,4.10
2023-01-11T14:05:13.410Z,3.90
2023-01-11T14:08:01.583Z,5.30
2023-01-11T14:11:01.317Z,7.40
2023-01-11T14:14:07.189Z,6.30
2023-01-11T14:17:12.759Z,6.50
2023-01-11T14:19:46.756Z,5.90
2023-01-11T14:22:55.399Z,8.80
2023-01-11T14:25:33.509Z,8.80
2023-01-11T14:28:32.229Z,5.50
2023-01-11T14:31:15.945Z,4.00
2023-01-11T14:34:19.829Z,5.40
2023-01-11T14:37:16.951Z,8.50
2023-01-11T14:40:43.556Z,7.50
2023-01-11T14:43:52.397Z,7.30
2023-01-11T14:46:45.844Z,7.00
2023-01-11T14:49:42.649Z,8.00
2023-01-11T14:52:38.541Z,8.70
2023-01-11T14:55:34.754Z,6.90
2023-01-11T14:58:25.172Z,7.90
2023-01-11T15:00:56.860Z,6.50
2023-01-11T15:03:39.349Z,10.60
2023-01-11T15:06:20.763Z,9.30
2023-01-11T15:08:54.614Z,8.60
2023-01-11T15:11:41.110Z,5.70
2023-01-11T15:14:29.079Z,7.90
2023-01-11T15:17:21.255Z,5.20
2023-01-11T15:19:51.964Z,5.50
2023-01-11T15:22:32.484Z,4.30
2023-01-11T15:25:19.190Z,5.50
2023-01-11T15:27:48.800Z,7.60
2023-01-11T15:30:34.191Z,7.10
2023-01-11T15:33:49.219Z,9.80
2023-01-11T15:36:18.189Z,7.80
2023-01-11T15:38:52.977Z,5.50
2023-01-11T15:41:51.088Z,7.00
2023-01-11T15:44:44.127Z,6.40
2023-01-11T15:47:59.759Z,7.60
2023-01-11T15:51:02.468Z,10.70
2023-01-11T15:53:56.844Z,8.10
2023-01-11T15:57:07.733Z,7.40
2023-01-11T16:00:33.566Z,5.80
2023-01-11T16:03:54.945Z,6.20
2023-01-11T16:06:59.183Z,6.30
2023-01-11T16:09:53.961Z,8.00
2023-01-11T16:13:05.440Z,7.90
2023-01-11T16:16:12.346Z,7.10
2023-01-11T16:18:49.561Z,7.30
2023-01-11T16:21:41.151Z,8.50
2023-01-11T16:24:22.658Z,7.60
2023-01-11T16:27:02.123Z,8.90
2023-01-11T16:29:37.040Z,10.00
2023-01-11T16:32:18.983Z,7.70
2023-01-11T16:34:52.435Z,8.40
2023-01-11T16:37:44.113Z,6.50
2023-01-11T16:40:24.678Z,6.50
2023-01-11T16:43:07.476Z,7.40
2023-01-11T16:45:51.655Z,6.80
2023-01-11T16:48:25.647Z,7.40
2023-01-11T16:51:04.342Z,7.00
2023-01-11T16:53:39.995Z,7.20
2023-01-11T16:56:18.824Z,10.60
2023-01-11T16:59:15.313Z,7.00
2023-01-11T17:02:00.030Z,7.70
2023-01-11T17:04:38.943Z,8.70
2023-01-11T17:07:22.470Z,8.30
2023-01-11T17:09:51.423Z,10.60
2023-01-11T17:12:25.068Z,9.70
2023-01-11T17:15:39.130Z,7.60
2023-01-11T17:18:10.555Z,9.70
2023-01-11T17:20:39.397Z,7.50
2023-01-11T17:23:12.249Z,9.30
2023-01-11T17:25:44.872Z,7.00
2023-01-11T17:28:20.365Z,9.20
2023-01-11T17:30:52.879Z,11.10
2023-01-11T17:33:34.188Z,10.10
2023-01-11T17:36:04.104Z,15.00
2023-01-11T17:38:33.688Z,17.90
2023-01-11T17:41:24.382Z,16.80
2023-01-11T17:44:12.093Z,10.50
2023-01-11T17:46:41.270Z,13.30
2023-01-11T17:49:23.918Z,11.90
2023-01-11T17:51:52.909Z,14.30
2023-01-11T17:54:25.609Z,15.30
2023-01-11T17:57:01.370Z,11.30
2023-01-11T17:59:31.034Z,11.30
2023-01-11T18:02:14.588Z,12.20
2023-01-11T18:04:43.631Z,10.30
2023-01-11T18:07:20.663Z,11.30
2023-01-11T18:10:02.267Z,14.20
2023-01-11T18:12:34.908Z,11.80
2023-01-11T18:15:07.633Z,13.70
2023-01-11T18:17:42.591Z,13.60
2023-01-11T18:20:15.752Z,14.70
2023-01-11T18:23:23.429Z,13.50
2023-01-11T18:26:28.066Z,13.00
2023-01-11T18:28:56.832Z,14.00
2023-01-11T18:31:25.749Z,14.50
2023-01-11T18:33:54.596Z,15.10
2023-01-11T18:36:30.225Z,13.40
2023-01-11T18:39:01.133Z,11.30
2023-01-11T18:41:58.959Z,11.50
2023-01-11T18:44:28.969Z,16.30
2023-01-11T18:46:57.651Z,17.10
2023-01-11T18:49:26.897Z,14.10
2023-01-11T18:51:55.889Z,12.30
2023-01-11T18:54:24.627Z,10.00
2023-01-11T18:56:53.392Z,12.60
2023-01-11T18:59:22.273Z,10.00
2023-01-11T19:01:59.064Z,11.70
2023-01-11T19:04:33.568Z,17.10
2023-01-11T19:07:02.394Z,11.80
2023-01-11T19:09:31.312Z,12.30
2023-01-11T19:12:00.270Z,11.40
2023-01-11T19:14:29.651Z,12.50
2023-01-11T19:16:58.792Z,11.90
2023-01-11T19:19:27.711Z,9.60
2023-01-11T19:21:56.451Z,10.80
2023-01-11T19:24:25.252Z,9.60
2023-01-11T19:26:54.176Z,9.40
2023-01-11T19:29:25.271Z,9.60
2023-01-11T19:31:56.137Z,11.50
2023-01-11T19:34:25.831Z,14.20
2023-01-11T19:36:54.669Z,13.50
2023-01-11T19:39:23.511Z,15.70
2023-01-11T19:42:02.244Z,15.00
2023-01-11T19:44:35.790Z,15.90
2023-01-11T19:47:13.720Z,17.80
2023-01-11T19:49:44.733Z,17.30
2023-01-11T19:52:20.096Z,24.40
2023-01-11T19:54:52.423Z,33.40
2023-01-11T19:57:27.139Z,30.20
2023-01-11T20:00:00.281Z,21.30
2023-01-11T20:02:33.006Z,26.40
2023-01-11T20:05:05.379Z,23.00
2023-01-11T20:07:37.036Z,25.40
2023-01-11T20:10:10.416Z,31.00
2023-01-11T20:12:40.883Z,34.20
2023-01-11T20:15:13.096Z,31.90
2023-01-11T20:17:46.313Z,28.20
2023-01-11T20:20:18.637Z,26.20
2023-01-11T20:22:50.668Z,28.10
2023-01-11T20:25:22.920Z,23.20
2023-01-11T20:27:54.142Z,20.00
2023-01-11T20:30:23.343Z,23.50
2023-01-11T20:32:52.088Z,19.90
2023-01-11T20:35:20.850Z,17.70
2023-01-11T20:37:49.549Z,11.50
2023-01-11T20:40:18.572Z,13.00
2023-01-11T20:42:47.387Z,8.30
2023-01-11T20:45:16.411Z,9.50
2023-01-11T20:47:45.188Z,9.50
2023-01-11T20:50:14.009Z,7.20
2023-01-11T20:52:42.790Z,9.00
2023-01-11T20:55:11.688Z,8.30
2023-01-11T20:57:40.630Z,7.70
2023-01-11T21:02:39.051Z,8.70
2023-01-11T21:05:08.555Z,9.40
2023-01-11T21:07:37.286Z,10.60
2023-01-11T21:10:07.090Z,11.70
2023-01-11T21:12:36.309Z,7.50
2023-01-11T21:15:09.050Z,8.40
2023-01-11T21:17:38.229Z,8.30
2023-01-11T21:20:07.915Z,10.50
2023-01-11T21:22:36.754Z,8.60
2023-01-11T21:25:06.120Z,8.10
2023-01-11T21:27:34.977Z,12.10
2023-01-11T21:30:04.270Z,15.00
2023-01-11T21:32:33.115Z,13.40
2023-01-11T21:35:01.879Z,10.00
2023-01-11T21:37:31.121Z,12.10
2023-01-11T21:39:59.949Z,9.60
2023-01-11T21:42:29.561Z,12.20
2023-01-11T21:44:58.193Z,7.90
2023-01-11T21:47:26.888Z,9.30
2023-01-11T21:49:55.624Z,10.30
2023-01-11T21:52:24.609Z,11.30
2023-01-11T21:54:54.110Z,9.20
2023-01-11T21:57:22.842Z,13.00
2023-01-11T21:59:51.735Z,11.20
2023-01-11T22:02:20.571Z,10.60
2023-01-11T22:04:53.477Z,10.80
2023-01-11T22:07:22.226Z,9.50
2023-01-11T22:10:04.049Z,10.40
2023-01-11T22:12:34.509Z,9.20
2023-01-11T22:15:03.459Z,8.90
2023-01-11T22:17:32.310Z,8.00
2023-01-11T22:20:01.048Z,9.00
2023-01-11T22:22:30.336Z,6.80
2023-01-11T22:24:59.043Z,9.20
2023-01-11T22:27:28.093Z,8.70
2023-01-11T22:29:56.828Z,9.40
2023-01-11T22:32:25.774Z,8.40
2023-01-11T22:34:54.421Z,7.50
2023-01-11T22:37:23.148Z,9.50
2023-01-11T22:39:51.838Z,8.30
2023-01-11T22:42:20.622Z,7.60
2023-01-11T22:44:50.030Z,7.50
2023-01-11T22:47:18.745Z,9.30
2023-01-11T22:49:53.972Z,7.40
2023-01-11T22:52:22.905Z,9.40
2023-01-11T22:54:51.639Z,6.80
2023-01-11T22:57:20.330Z,9.60
2023-01-11T23:00:22.170Z,10.80
2023-01-11T23:03:52.853Z,10.20
2023-01-11T23:07:22.928Z,9.70
2023-01-11T23:10:53.025Z,8.90
2023-01-11T23:15:11.134Z,8.90
2023-01-11T23:19:40.751Z,9.30
2023-01-11T23:24:13.462Z,10.00
2023-01-11T23:28:43.210Z,8.00
2023-01-11T23:33:12.870Z,10.10
2023-01-11T23:40:24.862Z,9.80
2023-01-11T23:43:33.803Z,9.50
2023-01-11T23:47:04.916Z,10.30
2023-01-11T23:50:35.144Z,10.10
2023-01-11T23:54:06.057Z,12.70
2023-01-11T23:58:30.192Z,10.40
